HomeShort term forecast

Short term forecast

Graphical weather forecast for the next 48 hours for Montreal:
Short term forecast
This weather forecast is automatically refreshed every 3 hours.

Hourly Experimental Forecast for the next 48 hours ®

Overall summary: Partly cloudy throughout the day.

 Date & Hour   Temp   Feel   Baro   Hum   Speed & Bearing   Wind Gust   Precip.%   Precip.   Visibility   Cloud cover   Conditions 
 16/09/2019 - 19:00  19.1°C  19.1°C  1017.8 hPa  46%  7.5 km/h   21.0 km/h  0%  --  16.1km  22%  Partly Cloudy 
 16/09/2019 - 20:00  17.4°C  17.4°C  1018.6 hPa  53%  5.5 km/h   15.7 km/h  0%  --  16.1km  23%  Partly Cloudy 
 16/09/2019 - 21:00  16.7°C  16.7°C  1019.6 hPa  61%  6.6 km/h   14.7 km/h  1%  0.02 mm/h  16.1km  20%  Partly Cloudy 
 16/09/2019 - 22:00  16.2°C  16.2°C  1019.9 hPa  66%  7.6 km/h   13.2 km/h  0%  --  16.1km  15%  Partly Cloudy 
 16/09/2019 - 23:00  15.5°C  15.5°C  1020.0 hPa  69%  7.4 km/h   12.0 km/h  0%  --  16.1km  10%  Clear 
 17/09/2019 - 00:00  14.8°C  14.8°C  1020.7 hPa  72%  7.3 km/h   11.9 km/h  2%  0.03 mm/h  16.1km  7%  Clear 
 17/09/2019 - 01:00  14.2°C  14.2°C  1020.1 hPa  74%  7.5 km/h   12.9 km/h  0%  --  16.1km  3%  Clear 
 17/09/2019 - 02:00  13.7°C  13.7°C  1020.2 hPa  75%  7.9 km/h   13.9 km/h  0%  --  16.1km  0%  Clear 
 17/09/2019 - 03:00  13.0°C  13.0°C  1021.3 hPa  77%  7.1 km/h   10.5 km/h  1%  0.03 mm/h  16.1km  0%  Clear 
 17/09/2019 - 04:00  12.2°C  12.2°C  1021.0 hPa  79%  6.9 km/h   10.2 km/h  0%  --  16.1km  0%  Clear 
 17/09/2019 - 05:00  11.5°C  11.5°C  1021.3 hPa  82%  6.5 km/h   12.0 km/h  0%  --  16.1km  1%  Clear 
 17/09/2019 - 06:00  11.0°C  11.0°C  1021.7 hPa  84%  6.2 km/h   13.8 km/h  0%  --  16.1km  2%  Clear 
 17/09/2019 - 07:00  11.0°C  11.0°C  1022.2 hPa  84%  6.0 km/h   13.4 km/h  0%  --  16.1km  5%  Clear 
 17/09/2019 - 08:00  12.0°C  12.0°C  1022.9 hPa  80%  6.2 km/h   16.0 km/h  0%  --  16.1km  6%  Clear 
 17/09/2019 - 09:00  13.3°C  13.3°C  1023.4 hPa  75%  6.8 km/h   12.1 km/h  0%  --  16.1km  6%  Clear 
 17/09/2019 - 10:00  15.4°C  15.4°C  1023.8 hPa  68%  8.2 km/h   13.4 km/h  0%  --  16.1km  3%  Clear 
 17/09/2019 - 11:00  17.1°C  17.1°C  1023.8 hPa  62%  9.1 km/h   14.1 km/h  2%  0.01 mm/h  16.1km  0%  Clear 
 17/09/2019 - 12:00  18.0°C  18.0°C  1023.7 hPa  58%  9.4 km/h   14.5 km/h  0%  --  16.1km  0%  Clear 
 17/09/2019 - 13:00  18.7°C  18.7°C  1023.4 hPa  55%  9.3 km/h   14.7 km/h  0%  --  16.1km  1%  Clear 
 17/09/2019 - 14:00  19.4°C  19.4°C  1023.1 hPa  52%  8.9 km/h   14.1 km/h  0%  --  16.1km  1%  Clear 
 17/09/2019 - 15:00  20.2°C  20.2°C  1022.8 hPa  49%  8.2 km/h   12.3 km/h  0%  --  16.1km  1%  Clear 
 17/09/2019 - 16:00  20.9°C  20.9°C  1022.5 hPa  47%  7.3 km/h   9.7 km/h  0%  --  16.1km  3%  Clear 
 17/09/2019 - 17:00  20.8°C  20.8°C  1022.2 hPa  47%  6.8 km/h   8.2 km/h  0%  --  16.1km  4%  Clear 
 17/09/2019 - 18:00  20.0°C  20.0°C  1022.5 hPa  49%  7.0 km/h   8.6 km/h  0%  --  16.1km  11%  Clear 
 17/09/2019 - 19:00  18.6°C  18.6°C  1023.3 hPa  54%  7.5 km/h   10.1 km/h  0%  --  16.1km  21%  Partly Cloudy 
 17/09/2019 - 20:00  17.2°C  17.2°C  1023.9 hPa  60%  7.7 km/h   11.6 km/h  0%  --  16.1km  28%  Partly Cloudy 
 17/09/2019 - 21:00  16.1°C  16.1°C  1024.1 hPa  66%  7.2 km/h   12.9 km/h  0%  --  16.1km  33%  Partly Cloudy 
 17/09/2019 - 22:00  15.4°C  15.4°C  1024.1 hPa  71%  6.4 km/h   14.2 km/h  0%  --  16.1km  34%  Partly Cloudy 
 17/09/2019 - 23:00  14.7°C  14.7°C  1024.2 hPa  75%  5.9 km/h   15.0 km/h  0%  --  16.1km  36%  Partly Cloudy 
 18/09/2019 - 00:00  14.1°C  14.1°C  1024.4 hPa  77%  6.1 km/h   14.6 km/h  0%  --  16.1km  36%  Partly Cloudy 
 18/09/2019 - 01:00  13.6°C  13.6°C  1024.7 hPa  78%  6.6 km/h   13.6 km/h  0%  --  16.1km  34%  Partly Cloudy 
 18/09/2019 - 02:00  13.1°C  13.1°C  1024.9 hPa  80%  7.3 km/h   12.8 km/h  0%  --  16.1km  33%  Partly Cloudy 
 18/09/2019 - 03:00  12.6°C  12.6°C  1025.2 hPa  80%  8.0 km/h   12.4 km/h  0%  --  16.1km  30%  Partly Cloudy 
 18/09/2019 - 04:00  11.8°C  11.8°C  1025.4 hPa  82%  8.8 km/h   12.2 km/h  0%  --  16.1km  28%  Partly Cloudy 
 18/09/2019 - 05:00  11.0°C  11.0°C  1025.8 hPa  84%  9.5 km/h   12.3 km/h  0%  --  16.1km  25%  Partly Cloudy 
 18/09/2019 - 06:00  10.5°C  10.5°C  1026.3 hPa  86%  9.8 km/h   13.1 km/h  0%  --  16.1km  21%  Partly Cloudy 
 18/09/2019 - 07:00  10.3°C  10.3°C  1027.0 hPa  85%  10.1 km/h   14.2 km/h  0%  --  16.1km  18%  Partly Cloudy 
 18/09/2019 - 08:00  10.7°C  10.7°C  1027.5 hPa  84%  10.1 km/h   14.9 km/h  0%  --  16.1km  14%  Partly Cloudy 
 18/09/2019 - 09:00  12.2°C  12.2°C  1027.7 hPa  77%  10.0 km/h   15.1 km/h  0%  --  16.1km  10%  Clear 
 18/09/2019 - 10:00  14.5°C  14.5°C  1027.8 hPa  64%  9.8 km/h   14.7 km/h  0%  --  16.1km  6%  Clear 
 18/09/2019 - 11:00  16.3°C  16.3°C  1027.8 hPa  56%  9.6 km/h   14.0 km/h  0%  --  16.1km  3%  Clear 
 18/09/2019 - 12:00  17.7°C  17.7°C  1027.7 hPa  50%  9.3 km/h   12.9 km/h  0%  --  16.1km  2%  Clear 
 18/09/2019 - 13:00  18.7°C  18.7°C  1027.4 hPa  47%  9.1 km/h   11.6 km/h  0%  --  16.1km  2%  Clear 
 18/09/2019 - 14:00  19.7°C  19.7°C  1027.1 hPa  43%  8.9 km/h   10.7 km/h  0%  --  16.1km  2%  Clear 
 18/09/2019 - 15:00  20.5°C  20.5°C  1026.8 hPa  40%  8.9 km/h   10.3 km/h  0%  --  16.1km  1%  Clear 
 18/09/2019 - 16:00  21.3°C  21.3°C  1026.5 hPa  38%  8.9 km/h   10.3 km/h  0%  --  16.1km  1%  Clear 
 18/09/2019 - 17:00  21.1°C  21.1°C  1026.4 hPa  38%  8.6 km/h   10.4 km/h  0%  --  16.1km  0%  Clear 
 18/09/2019 - 18:00  19.9°C  19.9°C  1026.6 hPa  42%  7.8 km/h   10.6 km/h  0%  --  16.1km  0%  Clear 
Test

 

Past weather and reports

Past weatherFind in this section the past weather conditions, weather archive, graphics, reports and statistics.

Current conditions

Current weather condition for MontrealAll you need to know about the current weather conditions for Montreal. Weather data is updated every 10 minutes.

Weather forecast

Current Montreal weatherSince 2004, celinium.com website has provided accurate weather forecast for Montreal's island.